sensor_id;sensor_type;location;lat;lon;timestamp;pressure;altitude;pressure_sealevel;temperature;humidity
71384;BME280;61466;52.166;5.004;2023-01-29T00:01:25;103108.59;;;7.01;59.75
71384;BME280;61466;52.166;5.004;2023-01-29T00:03:51;103095.22;;;6.94;59.56
71384;BME280;61466;52.166;5.004;2023-01-29T00:06:16;103093.03;;;6.97;59.84
71384;BME280;61466;52.166;5.004;2023-01-29T00:08:42;103088.53;;;6.98;59.79
71384;BME280;61466;52.166;5.004;2023-01-29T00:11:08;103087.31;;;7.01;59.48
71384;BME280;61466;52.166;5.004;2023-01-29T00:13:34;103069.72;;;7.00;59.79
71384;BME280;61466;52.166;5.004;2023-01-29T00:16:00;103078.69;;;6.98;59.45
71384;BME280;61466;52.166;5.004;2023-01-29T00:18:26;103075.84;;;7.00;59.18
71384;BME280;61466;52.166;5.004;2023-01-29T00:20:51;103059.88;;;7.00;59.69
71384;BME280;61466;52.166;5.004;2023-01-29T00:23:17;103061.09;;;6.97;59.69
71384;BME280;61466;52.166;5.004;2023-01-29T00:25:42;103069.91;;;6.98;59.22
71384;BME280;61466;52.166;5.004;2023-01-29T00:28:08;103063.94;;;6.96;59.68
71384;BME280;61466;52.166;5.004;2023-01-29T00:30:34;103080.38;;;7.00;59.17
71384;BME280;61466;52.166;5.004;2023-01-29T00:33:00;103071.34;;;7.01;59.07
71384;BME280;61466;52.166;5.004;2023-01-29T00:35:25;103069.72;;;7.00;59.58
71384;BME280;61466;52.166;5.004;2023-01-29T00:37:50;103071.19;;;7.02;59.23
71384;BME280;61466;52.166;5.004;2023-01-29T00:40:16;103075.13;;;7.06;59.10
71384;BME280;61466;52.166;5.004;2023-01-29T00:42:43;103069.97;;;7.05;59.52
71384;BME280;61466;52.166;5.004;2023-01-29T00:45:28;103062.81;;;7.05;58.95
71384;BME280;61466;52.166;5.004;2023-01-29T00:47:53;103046.84;;;7.05;59.00
71384;BME280;61466;52.166;5.004;2023-01-29T00:50:18;103052.38;;;7.04;59.15
71384;BME280;61466;52.166;5.004;2023-01-29T00:52:44;103051.72;;;7.02;59.29
71384;BME280;61466;52.166;5.004;2023-01-29T00:55:10;103049.44;;;6.98;59.30
71384;BME280;61466;52.166;5.004;2023-01-29T00:57:36;103052.72;;;7.01;59.75
71384;BME280;61466;52.166;5.004;2023-01-29T01:00:04;103048.22;;;7.01;59.64
71384;BME280;61466;52.166;5.004;2023-01-29T01:02:29;103040.63;;;6.98;59.29
71384;BME280;61466;52.166;5.004;2023-01-29T01:05:15;103038.78;;;6.98;59.20
71384;BME280;61466;52.166;5.004;2023-01-29T01:07:49;103041.09;;;7.02;59.43
71384;BME280;61466;52.166;5.004;2023-01-29T01:10:17;103029.97;;;6.98;59.43
71384;BME280;61466;52.166;5.004;2023-01-29T01:13:00;103033.09;;;7.02;59.33
71384;BME280;61466;52.166;5.004;2023-01-29T01:15:28;103035.38;;;7.05;59.35
71384;BME280;61466;52.166;5.004;2023-01-29T01:17:55;103033.75;;;7.04;59.06
71384;BME280;61466;52.166;5.004;2023-01-29T01:20:22;103043.38;;;7.05;59.12
71384;BME280;61466;52.166;5.004;2023-01-29T01:22:48;103043.19;;;7.06;59.56
71384;BME280;61466;52.166;5.004;2023-01-29T01:25:13;103046.84;;;7.05;59.30
71384;BME280;61466;52.166;5.004;2023-01-29T01:27:39;103058.34;;;7.06;59.47
71384;BME280;61466;52.166;5.004;2023-01-29T01:30:11;103040.63;;;6.98;59.38
71384;BME280;61466;52.166;5.004;2023-01-29T01:32:38;103055.69;;;7.06;59.48
71384;BME280;61466;52.166;5.004;2023-01-29T01:35:04;103055.03;;;7.04;59.21
71384;BME280;61466;52.166;5.004;2023-01-29T01:37:30;103057.31;;;7.07;59.36
71384;BME280;61466;52.166;5.004;2023-01-29T01:39:55;103063.28;;;7.09;59.52
71384;BME280;61466;52.166;5.004;2023-01-29T01:42:27;103053.00;;;7.06;59.46
71384;BME280;61466;52.166;5.004;2023-01-29T01:47:27;103059.72;;;7.02;59.85
71384;BME280;61466;52.166;5.004;2023-01-29T01:49:54;103054.19;;;7.03;59.84
71384;BME280;61466;52.166;5.004;2023-01-29T01:52:21;103055.84;;;7.04;59.42
71384;BME280;61466;52.166;5.004;2023-01-29T01:54:46;103055.22;;;7.02;59.53
71384;BME280;61466;52.166;5.004;2023-01-29T01:57:17;103064.00;;;7.03;59.57
71384;BME280;61466;52.166;5.004;2023-01-29T01:59:53;103055.03;;;7.04;59.61
71384;BME280;61466;52.166;5.004;2023-01-29T02:02:20;103049.88;;;7.02;59.36
71384;BME280;61466;52.166;5.004;2023-01-29T02:05:05;103061.00;;;7.06;59.60
71384;BME280;61466;52.166;5.004;2023-01-29T02:07:50;103055.22;;;7.02;59.55
71384;BME280;61466;52.166;5.004;2023-01-29T02:10:40;103057.06;;;7.02;59.56
71384;BME280;61466;52.166;5.004;2023-01-29T02:13:07;103055.84;;;7.04;59.40
71384;BME280;61466;52.166;5.004;2023-01-29T02:15:33;103053.66;;;7.08;59.74
71384;BME280;61466;52.166;5.004;2023-01-29T02:17:58;103044.00;;;7.07;59.40
71384;BME280;61466;52.166;5.004;2023-01-29T02:20:29;103055.47;;;7.07;59.80
71384;BME280;61466;52.166;5.004;2023-01-29T02:23:20;103045.38;;;7.03;59.72
71384;BME280;61466;52.166;5.004;2023-01-29T02:26:21;103048.84;;;7.03;59.54
71384;BME280;61466;52.166;5.004;2023-01-29T02:35:21;103059.50;;;7.03;59.82
71384;BME280;61466;52.166;5.004;2023-01-29T02:40:49;103063.84;;;7.04;59.70
71384;BME280;61466;52.166;5.004;2023-01-29T02:43:24;103060.16;;;7.05;59.21
71384;BME280;61466;52.166;5.004;2023-01-29T02:46:00;103059.97;;;7.07;59.28
71384;BME280;61466;52.166;5.004;2023-01-29T02:48:38;103043.94;;;7.00;59.50
71384;BME280;61466;52.166;5.004;2023-01-29T02:51:09;103046.84;;;7.05;59.68
71384;BME280;61466;52.166;5.004;2023-01-29T02:56:19;103059.97;;;7.07;59.71
71384;BME280;61466;52.166;5.004;2023-01-29T02:58:51;103056.31;;;7.08;59.58
71384;BME280;61466;52.166;5.004;2023-01-29T03:01:23;103049.72;;;7.04;59.38
71384;BME280;61466;52.166;5.004;2023-01-29T03:03:52;103057.78;;;7.10;59.39
71384;BME280;61466;52.166;5.004;2023-01-29T03:06:23;103042.16;;;7.07;59.39
71384;BME280;61466;52.166;5.004;2023-01-29T03:08:56;103044.00;;;7.07;59.51
71384;BME280;61466;52.166;5.004;2023-01-29T03:11:23;103042.16;;;7.07;59.30
71384;BME280;61466;52.166;5.004;2023-01-29T03:13:55;103033.75;;;7.04;59.44
71384;BME280;61466;52.166;5.004;2023-01-29T03:16:31;103035.56;;;7.03;59.89
71384;BME280;61466;52.166;5.004;2023-01-29T03:19:04;103027.56;;;7.03;59.67
71384;BME280;61466;52.166;5.004;2023-01-29T03:21:38;103044.38;;;7.04;59.72
71384;BME280;61466;52.166;5.004;2023-01-29T03:24:50;103039.25;;;7.02;59.70
71384;BME280;61466;52.166;5.004;2023-01-29T03:27:43;103036.19;;;7.05;59.64
71384;BME280;61466;52.166;5.004;2023-01-29T03:30:29;103033.53;;;7.05;59.55
71384;BME280;61466;52.166;5.004;2023-01-29T03:33:17;103022.72;;;7.07;59.60
71384;BME280;61466;52.166;5.004;2023-01-29T03:35:54;103016.56;;;7.06;59.59
71384;BME280;61466;52.166;5.004;2023-01-29T03:38:20;103007.13;;;7.04;59.42
71384;BME280;61466;52.166;5.004;2023-01-29T03:40:55;103011.19;;;7.00;59.83
71384;BME280;61466;52.166;5.004;2023-01-29T03:43:32;103009.34;;;7.00;59.50
71384;BME280;61466;52.166;5.004;2023-01-29T03:46:12;103005.84;;;7.00;59.47
71384;BME280;61466;52.166;5.004;2023-01-29T03:49:04;103002.81;;;7.03;59.77
71384;BME280;61466;52.166;5.004;2023-01-29T03:51:37;103003.84;;;7.02;59.86
71384;BME280;61466;52.166;5.004;2023-01-29T03:54:17;103003.53;;;6.96;59.69
71384;BME280;61466;52.166;5.004;2023-01-29T03:57:20;102991.28;;;6.95;59.69
71384;BME280;61466;52.166;5.004;2023-01-29T03:59:50;102990.88;;;6.98;59.71
71384;BME280;61466;52.166;5.004;2023-01-29T04:02:19;102994.75;;;6.96;59.69
71384;BME280;61466;52.166;5.004;2023-01-29T04:04:56;102992.09;;;6.96;60.14
71384;BME280;61466;52.166;5.004;2023-01-29T04:07:23;102979.16;;;6.93;60.04
71384;BME280;61466;52.166;5.004;2023-01-29T04:09:57;102987.22;;;7.00;59.92
71384;BME280;61466;52.166;5.004;2023-01-29T04:12:30;102977.78;;;6.97;60.07
71384;BME280;61466;52.166;5.004;2023-01-29T04:14:59;102983.94;;;6.97;59.89
71384;BME280;61466;52.166;5.004;2023-01-29T04:17:36;102986.31;;;6.92;59.83
71384;BME280;61466;52.166;5.004;2023-01-29T04:20:03;102976.88;;;6.90;60.07
71384;BME280;61466;52.166;5.004;2023-01-29T04:22:33;102982.47;;;6.95;59.74
71384;BME280;61466;52.166;5.004;2023-01-29T04:25:01;102957.19;;;6.84;59.92
71384;BME280;61466;52.166;5.004;2023-01-29T04:30:37;102976.69;;;6.91;59.94
71384;BME280;61466;52.166;5.004;2023-01-29T04:33:27;102976.69;;;6.91;59.98
71384;BME280;61466;52.166;5.004;2023-01-29T04:41:36;102959.06;;;6.90;60.28
71384;BME280;61466;52.166;5.004;2023-01-29T04:52:00;102944.75;;;6.91;60.07
71384;BME280;61466;52.166;5.004;2023-01-29T04:54:40;102941.47;;;6.89;60.06
71384;BME280;61466;52.166;5.004;2023-01-29T04:59:49;102944.13;;;6.89;59.90
71384;BME280;61466;52.166;5.004;2023-01-29T05:02:18;102936.53;;;6.86;60.29
71384;BME280;61466;52.166;5.004;2023-01-29T05:04:45;102931.22;;;6.86;60.33
71384;BME280;61466;52.166;5.004;2023-01-29T05:07:13;102937.72;;;6.84;60.27
71384;BME280;61466;52.166;5.004;2023-01-29T05:09:42;102935.03;;;6.84;60.08
71384;BME280;61466;52.166;5.004;2023-01-29T05:12:09;102935.03;;;6.84;60.37
71384;BME280;61466;52.166;5.004;2023-01-29T05:14:38;102930.56;;;6.84;59.83
71384;BME280;61466;52.166;5.004;2023-01-29T05:17:10;102913.91;;;6.75;59.76
71384;BME280;61466;52.166;5.004;2023-01-29T05:19:38;102938.97;;;6.88;60.22
71384;BME280;61466;52.166;5.004;2023-01-29T05:22:04;102928.91;;;6.83;60.10
71384;BME280;61466;52.166;5.004;2023-01-29T05:24:30;102932.91;;;6.94;59.65
71384;BME280;61466;52.166;5.004;2023-01-29T05:26:56;102943.09;;;6.90;59.81
71384;BME280;61466;52.166;5.004;2023-01-29T05:29:44;102941.47;;;6.89;59.87
71384;BME280;61466;52.166;5.004;2023-01-29T05:32:09;102931.00;;;6.88;60.02
71384;BME280;61466;52.166;5.004;2023-01-29T05:34:35;102931.22;;;6.86;59.64
71384;BME280;61466;52.166;5.004;2023-01-29T05:37:00;102934.88;;;6.85;59.94
71384;BME280;61466;52.166;5.004;2023-01-29T05:39:26;102932.03;;;6.87;59.70
71384;BME280;61466;52.166;5.004;2023-01-29T05:41:51;102923.22;;;6.86;59.57
71384;BME280;61466;52.166;5.004;2023-01-29T05:44:16;102931.22;;;6.86;59.75
71384;BME280;61466;52.166;5.004;2023-01-29T05:46:42;102932.84;;;6.87;59.87
71384;BME280;61466;52.166;5.004;2023-01-29T05:49:08;102929.09;;;6.82;59.88
71384;BME280;61466;52.166;5.004;2023-01-29T05:51:33;102922.94;;;6.81;59.50
71384;BME280;61466;52.166;5.004;2023-01-29T05:53:59;102934.06;;;6.85;59.79
71384;BME280;61466;52.166;5.004;2023-01-29T05:56:24;102933.03;;;6.86;59.53
71384;BME280;61466;52.166;5.004;2023-01-29T05:58:50;102920.28;;;6.81;59.78
71384;BME280;61466;52.166;5.004;2023-01-29T06:01:17;102921.56;;;6.85;59.69
71384;BME280;61466;52.166;5.004;2023-01-29T06:03:43;102909.94;;;6.86;59.32
71384;BME280;61466;52.166;5.004;2023-01-29T06:06:09;102916.69;;;6.89;59.81
71384;BME280;61466;52.166;5.004;2023-01-29T06:08:35;102922.19;;;6.87;59.50
71384;BME280;61466;52.166;5.004;2023-01-29T06:11:00;102914.22;;;6.87;59.25
71384;BME280;61466;52.166;5.004;2023-01-29T06:13:26;102908.72;;;6.89;59.53
71384;BME280;61466;52.166;5.004;2023-01-29T06:15:51;102902.59;;;6.88;59.53
71384;BME280;61466;52.166;5.004;2023-01-29T06:18:16;102896.00;;;6.84;59.47
71384;BME280;61466;52.166;5.004;2023-01-29T06:20:42;102900.53;;;6.90;59.53
71384;BME280;61466;52.166;5.004;2023-01-29T06:23:07;102903.41;;;6.89;59.43
71384;BME280;61466;52.166;5.004;2023-01-29T06:25:32;102899.28;;;6.86;59.23
71384;BME280;61466;52.166;5.004;2023-01-29T06:27:58;102885.34;;;6.84;59.47
71384;BME280;61466;52.166;5.004;2023-01-29T06:30:23;102882.88;;;6.83;59.82
71384;BME280;61466;52.166;5.004;2023-01-29T06:32:48;102877.38;;;6.84;59.54
71384;BME280;61466;52.166;5.004;2023-01-29T06:35:14;102880.03;;;6.84;59.51
71384;BME280;61466;52.166;5.004;2023-01-29T06:37:39;102892.47;;;6.84;59.34
71384;BME280;61466;52.166;5.004;2023-01-29T06:40:05;102891.84;;;6.82;59.30
71384;BME280;61466;52.166;5.004;2023-01-29T06:42:31;102882.06;;;6.82;59.58
71384;BME280;61466;52.166;5.004;2023-01-29T06:44:56;102885.06;;;6.79;59.60
71384;BME280;61466;52.166;5.004;2023-01-29T06:47:22;102894.72;;;6.80;59.51
71384;BME280;61466;52.166;5.004;2023-01-29T06:49:48;102895.13;;;6.84;59.33
71384;BME280;61466;52.166;5.004;2023-01-29T06:52:14;102891.41;;;6.78;59.71
71384;BME280;61466;52.166;5.004;2023-01-29T06:54:39;102889.41;;;6.80;59.90
71384;BME280;61466;52.166;5.004;2023-01-29T06:57:05;102891.41;;;6.78;59.62
71384;BME280;61466;52.166;5.004;2023-01-29T06:59:30;102888.94;;;6.76;59.67
71384;BME280;61466;52.166;5.004;2023-01-29T07:01:55;102889.13;;;6.75;59.79
71384;BME280;61466;52.166;5.004;2023-01-29T07:04:21;102881.53;;;6.72;60.22
71384;BME280;61466;52.166;5.004;2023-01-29T07:06:46;102878.69;;;6.73;59.82
71384;BME280;61466;52.166;5.004;2023-01-29T07:09:12;102884.00;;;6.73;60.06
71384;BME280;61466;52.166;5.004;2023-01-29T07:11:40;102876.03;;;6.73;59.99
71384;BME280;61466;52.166;5.004;2023-01-29T07:14:06;102871.53;;;6.74;60.13
71384;BME280;61466;52.166;5.004;2023-01-29T07:16:31;102880.72;;;6.71;59.93
71384;BME280;61466;52.166;5.004;2023-01-29T07:18:57;102876.66;;;6.75;59.74
71384;BME280;61466;52.166;5.004;2023-01-29T07:21:22;102884.44;;;6.77;59.74
71384;BME280;61466;52.166;5.004;2023-01-29T07:23:47;102891.22;;;6.80;59.85
71384;BME280;61466;52.166;5.004;2023-01-29T07:26:13;102885.06;;;6.79;59.99
71384;BME280;61466;52.166;5.004;2023-01-29T07:28:39;102885.47;;;6.76;59.84
71384;BME280;61466;52.166;5.004;2023-01-29T07:31:05;102882.00;;;6.75;59.40
71384;BME280;61466;52.166;5.004;2023-01-29T07:33:31;102896.75;;;6.78;59.79
71384;BME280;61466;52.166;5.004;2023-01-29T07:35:56;102889.13;;;6.75;59.52
71384;BME280;61466;52.166;5.004;2023-01-29T07:38:22;102895.28;;;6.75;59.92
71384;BME280;61466;52.166;5.004;2023-01-29T07:40:47;102890.16;;;6.74;59.78
71384;BME280;61466;52.166;5.004;2023-01-29T07:43:13;102882.81;;;6.76;59.44
71384;BME280;61466;52.166;5.004;2023-01-29T07:45:39;102884.81;;;6.74;59.69
71384;BME280;61466;52.166;5.004;2023-01-29T07:48:06;102875.41;;;6.71;59.76
71384;BME280;61466;52.166;5.004;2023-01-29T07:50:33;102872.53;;;6.73;59.92
71384;BME280;61466;52.166;5.004;2023-01-29T07:52:59;102871.53;;;6.74;59.42
71384;BME280;61466;52.166;5.004;2023-01-29T07:55:26;102868.47;;;6.77;59.57
71384;BME280;61466;52.166;5.004;2023-01-29T07:57:55;102873.78;;;6.77;59.48
71384;BME280;61466;52.166;5.004;2023-01-29T08:00:21;102872.81;;;6.78;59.64
71384;BME280;61466;52.166;5.004;2023-01-29T08:02:46;102857.66;;;6.79;59.77
71384;BME280;61466;52.166;5.004;2023-01-29T08:05:11;102848.03;;;6.78;59.51
71384;BME280;61466;52.166;5.004;2023-01-29T08:07:37;102847.00;;;6.79;59.53
71384;BME280;61466;52.166;5.004;2023-01-29T08:10:02;102833.66;;;6.72;59.73
71384;BME280;61466;52.166;5.004;2023-01-29T08:12:28;102836.78;;;6.75;59.26
71384;BME280;61466;52.166;5.004;2023-01-29T08:14:53;102839.44;;;6.75;59.38
71384;BME280;61466;52.166;5.004;2023-01-29T08:17:19;102834.09;;;6.75;59.11
71384;BME280;61466;52.166;5.004;2023-01-29T08:19:44;102831.22;;;6.77;59.27
71384;BME280;61466;52.166;5.004;2023-01-29T08:22:09;102834.53;;;6.79;59.30
71384;BME280;61466;52.166;5.004;2023-01-29T08:24:35;102840.31;;;6.83;59.37
71384;BME280;61466;52.166;5.004;2023-01-29T08:27:00;102845.22;;;6.86;59.25
71384;BME280;61466;52.166;5.004;2023-01-29T08:29:25;102837.53;;;6.91;59.29
71384;BME280;61466;52.166;5.004;2023-01-29T08:31:51;102835.69;;;6.91;58.88
71384;BME280;61466;52.166;5.004;2023-01-29T08:34:16;102831.81;;;6.94;59.23
71384;BME280;61466;52.166;5.004;2023-01-29T08:36:41;102833.53;;;7.02;58.63
71384;BME280;61466;52.166;5.004;2023-01-29T08:39:07;102824.50;;;7.03;58.82
71384;BME280;61466;52.166;5.004;2023-01-29T08:41:32;102838.50;;;7.11;58.41
71384;BME280;61466;52.166;5.004;2023-01-29T08:43:58;102822.13;;;7.08;58.59
71384;BME280;61466;52.166;5.004;2023-01-29T08:46:25;102819.06;;;7.11;58.57
71384;BME280;61466;52.166;5.004;2023-01-29T08:48:50;102824.59;;;7.16;58.36
71384;BME280;61466;52.166;5.004;2023-01-29T08:51:16;102817.66;;;7.15;58.75
71384;BME280;61466;52.166;5.004;2023-01-29T08:53:41;102813.59;;;7.19;58.25
71384;BME280;61466;52.166;5.004;2023-01-29T08:56:07;102817.72;;;7.22;58.42
71384;BME280;61466;52.166;5.004;2023-01-29T08:58:32;102818.34;;;7.24;58.30
71384;BME280;61466;52.166;5.004;2023-01-29T09:01:05;102804.22;;;7.23;58.53
71384;BME280;61466;52.166;5.004;2023-01-29T09:03:30;102814.31;;;7.34;58.20
71384;BME280;61466;52.166;5.004;2023-01-29T09:05:56;102818.25;;;7.38;58.56
71384;BME280;61466;52.166;5.004;2023-01-29T09:08:21;102815.38;;;7.40;58.47
71384;BME280;61466;52.166;5.004;2023-01-29T09:10:47;102811.69;;;7.41;58.32
71384;BME280;61466;52.166;5.004;2023-01-29T09:13:12;102808.44;;;7.46;58.11
71384;BME280;61466;52.166;5.004;2023-01-29T09:15:38;102808.69;;;7.51;58.19
71384;BME280;61466;52.166;5.004;2023-01-29T09:18:03;102799.88;;;7.50;58.27
71384;BME280;61466;52.166;5.004;2023-01-29T09:20:29;102785.09;;;7.48;58.01
71384;BME280;61466;52.166;5.004;2023-01-29T09:22:54;102806.47;;;7.61;58.04
71384;BME280;61466;52.166;5.004;2023-01-29T09:25:21;102808.97;;;7.63;57.79
71384;BME280;61466;52.166;5.004;2023-01-29T09:27:46;102802.22;;;7.67;57.92
71384;BME280;61466;52.166;5.004;2023-01-29T09:30:12;102811.66;;;7.69;57.86
71384;BME280;61466;52.166;5.004;2023-01-29T09:32:37;102816.59;;;7.72;57.64
71384;BME280;61466;52.166;5.004;2023-01-29T09:35:03;102801.25;;;7.74;57.80
71384;BME280;61466;52.166;5.004;2023-01-29T09:37:28;102807.41;;;7.75;57.61
71384;BME280;61466;52.166;5.004;2023-01-29T09:39:54;102803.69;;;7.76;58.01
71384;BME280;61466;52.166;5.004;2023-01-29T09:47:24;102811.53;;;7.84;57.30
71384;BME280;61466;52.166;5.004;2023-01-29T09:55:32;102805.38;;;7.84;57.10
71384;BME280;61466;52.166;5.004;2023-01-29T09:58:12;102803.72;;;7.83;56.85
71384;BME280;61466;52.166;5.004;2023-01-29T10:03:33;102798.41;;;7.83;56.72
71384;BME280;61466;52.166;5.004;2023-01-29T10:06:19;102806.81;;;7.86;57.07
71384;BME280;61466;52.166;5.004;2023-01-29T10:11:41;102793.50;;;7.86;56.79
71384;BME280;61466;52.166;5.004;2023-01-29T10:25:05;102788.78;;;7.82;57.54
71384;BME280;61466;52.166;5.004;2023-01-29T10:27:36;102778.31;;;7.80;57.43
71384;BME280;61466;52.166;5.004;2023-01-29T10:30:07;102781.78;;;7.80;57.08
71384;BME280;61466;52.166;5.004;2023-01-29T10:32:35;102763.53;;;7.77;57.50
71384;BME280;61466;52.166;5.004;2023-01-29T10:37:41;102767.22;;;7.76;57.51
71384;BME280;61466;52.166;5.004;2023-01-29T10:40:27;102765.59;;;7.75;57.48
71384;BME280;61466;52.166;5.004;2023-01-29T10:43:02;102754.50;;;7.72;57.28
71384;BME280;61466;52.166;5.004;2023-01-29T10:45:42;102751.63;;;7.73;57.61
71384;BME280;61466;52.166;5.004;2023-01-29T10:48:47;102752.03;;;7.70;57.47
71384;BME280;61466;52.166;5.004;2023-01-29T10:51:21;102754.31;;;7.73;57.21
71384;BME280;61466;52.166;5.004;2023-01-29T10:54:31;102750.81;;;7.66;57.35
71384;BME280;61466;52.166;5.004;2023-01-29T10:57:12;102751.00;;;7.71;57.35
71384;BME280;61466;52.166;5.004;2023-01-29T11:00:10;102749.38;;;7.70;57.57
71384;BME280;61466;52.166;5.004;2023-01-29T11:02:43;102733.41;;;7.70;57.46
71384;BME280;61466;52.166;5.004;2023-01-29T11:07:43;102728.06;;;7.70;57.42
71384;BME280;61466;52.166;5.004;2023-01-29T11:10:14;102719.25;;;7.70;57.64
71384;BME280;61466;52.166;5.004;2023-01-29T11:12:39;102723.56;;;7.71;57.84
71384;BME280;61466;52.166;5.004;2023-01-29T11:15:15;102722.94;;;7.69;57.54
71384;BME280;61466;52.166;5.004;2023-01-29T11:18:11;102721.31;;;7.74;57.91
71384;BME280;61466;52.166;5.004;2023-01-29T11:20:42;102710.25;;;7.77;57.39
71384;BME280;61466;52.166;5.004;2023-01-29T11:23:28;102716.00;;;7.74;57.91
71384;BME280;61466;52.166;5.004;2023-01-29T11:25:55;102718.06;;;7.79;57.74
71384;BME280;61466;52.166;5.004;2023-01-29T11:28:39;102706.38;;;7.80;57.61
71384;BME280;61466;52.166;5.004;2023-01-29T11:31:20;102709.84;;;7.80;57.46
71384;BME280;61466;52.166;5.004;2023-01-29T11:33:47;102710.47;;;7.83;57.62
71384;BME280;61466;52.166;5.004;2023-01-29T11:36:31;102706.81;;;7.84;57.48
71384;BME280;61466;52.166;5.004;2023-01-29T11:41:46;102697.16;;;7.83;57.94
71384;BME280;61466;52.166;5.004;2023-01-29T11:47:26;102691.03;;;7.89;57.67
71384;BME280;61466;52.166;5.004;2023-01-29T11:49:56;102695.13;;;7.91;57.71
71384;BME280;61466;52.166;5.004;2023-01-29T11:52:26;102681.81;;;7.91;57.74
71384;BME280;61466;52.166;5.004;2023-01-29T11:55:18;102678.13;;;7.86;57.87
71384;BME280;61466;52.166;5.004;2023-01-29T11:57:47;102672.38;;;7.89;57.79
71384;BME280;61466;52.166;5.004;2023-01-29T12:00:20;102665.59;;;7.86;57.83
71384;BME280;61466;52.166;5.004;2023-01-29T12:02:52;102664.78;;;7.86;57.90
71384;BME280;61466;52.166;5.004;2023-01-29T12:05:22;102657.00;;;7.84;58.20
71384;BME280;61466;52.166;5.004;2023-01-29T12:07:49;102658.44;;;7.87;57.97
71384;BME280;61466;52.166;5.004;2023-01-29T12:10:38;102643.47;;;7.86;58.04
71384;BME280;61466;52.166;5.004;2023-01-29T12:15:31;102642.66;;;7.85;57.95
71384;BME280;61466;52.166;5.004;2023-01-29T12:20:49;102638.34;;;7.91;58.12
71384;BME280;61466;52.166;5.004;2023-01-29T12:28:43;102601.66;;;7.93;58.72
71384;BME280;61466;52.166;5.004;2023-01-29T12:36:32;102597.16;;;8.00;58.44
71384;BME280;61466;52.166;5.004;2023-01-29T12:38:59;102593.47;;;8.01;58.45
71384;BME280;61466;52.166;5.004;2023-01-29T12:41:48;102590.63;;;8.03;58.59
71384;BME280;61466;52.166;5.004;2023-01-29T12:46:45;102570.72;;;7.98;58.26
71384;BME280;61466;52.166;5.004;2023-01-29T12:49:27;102571.13;;;8.02;58.66
71384;BME280;61466;52.166;5.004;2023-01-29T12:52:01;102550.22;;;7.99;58.76
71384;BME280;61466;52.166;5.004;2023-01-29T12:54:56;102538.53;;;8.00;58.88
71384;BME280;61466;52.166;5.004;2023-01-29T12:57:33;102526.84;;;8.08;58.60
71384;BME280;61466;52.166;5.004;2023-01-29T13:00:04;102526.66;;;8.09;58.82
71384;BME280;61466;52.166;5.004;2023-01-29T13:02:39;102520.47;;;8.22;58.75
71384;BME280;61466;52.166;5.004;2023-01-29T13:05:25;102505.69;;;8.33;58.67
71384;BME280;61466;52.166;5.004;2023-01-29T13:07:57;102497.88;;;8.38;58.35
71384;BME280;61466;52.166;5.004;2023-01-29T13:10:31;102488.47;;;8.42;58.49
71384;BME280;61466;52.166;5.004;2023-01-29T13:13:04;102485.78;;;8.49;58.22
71384;BME280;61466;52.166;5.004;2023-01-29T13:15:35;102478.56;;;8.56;58.13
71384;BME280;61466;52.166;5.004;2023-01-29T13:18:42;102478.16;;;8.59;58.26
71384;BME280;61466;52.166;5.004;2023-01-29T13:21:20;102475.91;;;8.63;57.90
71384;BME280;61466;52.166;5.004;2023-01-29T13:23:49;102477.69;;;8.69;57.94
71384;BME280;61466;52.166;5.004;2023-01-29T13:26:17;102467.44;;;8.72;57.91
71384;BME280;61466;52.166;5.004;2023-01-29T13:28:44;102468.84;;;8.75;57.90
71384;BME280;61466;52.166;5.004;2023-01-29T13:33:36;102465.16;;;8.76;57.98
71384;BME280;61466;52.166;5.004;2023-01-29T13:36:02;102457.41;;;8.68;57.81
71384;BME280;61466;52.166;5.004;2023-01-29T13:38:30;102457.16;;;8.76;57.86
71384;BME280;61466;52.166;5.004;2023-01-29T13:41:04;102449.16;;;8.76;57.82
71384;BME280;61466;52.166;5.004;2023-01-29T13:43:37;102450.16;;;8.75;57.71
71384;BME280;61466;52.166;5.004;2023-01-29T13:46:08;102444.84;;;8.75;57.93
71384;BME280;61466;52.166;5.004;2023-01-29T13:48:41;102444.84;;;8.75;57.62
71384;BME280;61466;52.166;5.004;2023-01-29T13:51:10;102421.88;;;8.74;57.94
71384;BME280;61466;52.166;5.004;2023-01-29T13:53:42;102432.72;;;8.79;57.65
71384;BME280;61466;52.166;5.004;2023-01-29T13:56:40;102409.56;;;8.66;57.72
71384;BME280;61466;52.166;5.004;2023-01-29T13:59:20;102424.53;;;8.74;57.58
71384;BME280;61466;52.166;5.004;2023-01-29T14:06:46;102423.50;;;8.75;57.91
71384;BME280;61466;52.166;5.004;2023-01-29T14:09:31;102416.09;;;8.77;57.77
71384;BME280;61466;52.166;5.004;2023-01-29T14:11:58;102412.63;;;8.76;57.75
71384;BME280;61466;52.166;5.004;2023-01-29T14:17:19;102405.63;;;8.75;57.81
71384;BME280;61466;52.166;5.004;2023-01-29T14:20:00;102405.47;;;8.70;57.68
71384;BME280;61466;52.166;5.004;2023-01-29T14:22:28;102405.91;;;8.67;57.75
71384;BME280;61466;52.166;5.004;2023-01-29T14:24:57;102396.66;;;8.70;57.75
71384;BME280;61466;52.166;5.004;2023-01-29T14:27:24;102405.91;;;8.67;58.08
71384;BME280;61466;52.166;5.004;2023-01-29T14:29:50;102401.78;;;8.65;57.74
71384;BME280;61466;52.166;5.004;2023-01-29T14:32:21;102406.91;;;8.66;57.89
71384;BME280;61466;52.166;5.004;2023-01-29T14:34:51;102405.91;;;8.67;57.95
71384;BME280;61466;52.166;5.004;2023-01-29T14:37:23;102406.72;;;8.68;57.72
71384;BME280;61466;52.166;5.004;2023-01-29T14:39:52;102403.22;;;8.67;57.65
71384;BME280;61466;52.166;5.004;2023-01-29T14:42:25;102386.66;;;8.58;58.13
71384;BME280;61466;52.166;5.004;2023-01-29T14:44:56;102390.31;;;8.64;57.99
71384;BME280;61466;52.166;5.004;2023-01-29T14:50:01;102380.44;;;8.65;58.30
71384;BME280;61466;52.166;5.004;2023-01-29T14:52:37;102383.72;;;8.67;58.15
71384;BME280;61466;52.166;5.004;2023-01-29T14:55:18;102373.09;;;8.60;58.29
71384;BME280;61466;52.166;5.004;2023-01-29T14:57:48;102364.06;;;8.61;58.41
71384;BME280;61466;52.166;5.004;2023-01-29T15:00:19;102369.81;;;8.58;58.47
71384;BME280;61466;52.166;5.004;2023-01-29T15:02:50;102376.34;;;8.62;58.16